createdAt,value
2022-09-30T00:01:33.747Z,94162.88
2022-09-30T00:04:02.875Z,94161.94
2022-09-30T00:06:35.156Z,94164.63
2022-09-30T00:09:03.550Z,94159.72
2022-09-30T00:11:34.858Z,94157.97
2022-09-30T00:14:04.119Z,94156.94
2022-09-30T00:16:34.426Z,94149.13
2022-09-30T00:19:04.356Z,94152.75
2022-09-30T00:21:34.928Z,94149.59
2022-09-30T00:24:03.394Z,94155.31
2022-09-30T00:26:32.513Z,94158.94
2022-09-30T00:29:01.584Z,94163.69
2022-09-30T00:31:31.940Z,94163.84
2022-09-30T00:34:09.234Z,94168.13
2022-09-30T00:36:43.541Z,94166.06
2022-09-30T00:39:14.302Z,94175.59
2022-09-30T00:41:42.249Z,94167.16
2022-09-30T00:44:47.374Z,94173.16
2022-09-30T00:47:41.555Z,94176.78
2022-09-30T00:50:26.275Z,94174.72
2022-09-30T00:53:01.213Z,94175.38
2022-09-30T00:55:37.099Z,94183.56
2022-09-30T00:58:09.779Z,94188.16
2022-09-30T01:00:38.208Z,94190.84
2022-09-30T01:03:07.817Z,94192.72
2022-09-30T01:05:36.023Z,94190.66
2022-09-30T01:08:09.509Z,94194.94
2022-09-30T01:10:37.653Z,94189.88
2022-09-30T01:13:06.346Z,94188.84
2022-09-30T01:15:50.702Z,94193.44
2022-09-30T01:18:27.275Z,94198.09
2022-09-30T01:21:31.797Z,94200.28
2022-09-30T01:24:35.611Z,94200.22
2022-09-30T01:27:19.610Z,94199.59
2022-09-30T01:30:10.324Z,94197.53
2022-09-30T01:33:11.312Z,94198.91
2022-09-30T01:35:48.885Z,94196.84
2022-09-30T01:38:24.918Z,94198.41
2022-09-30T01:41:04.309Z,94188.53
2022-09-30T01:43:45.504Z,94195.56
2022-09-30T01:46:35.521Z,94196.34
2022-09-30T01:49:13.786Z,94195.41
2022-09-30T01:51:49.996Z,94196.97
2022-09-30T01:54:23.509Z,94196.53
2022-09-30T01:56:55.888Z,94201.56
2022-09-30T01:59:28.941Z,94210.72
2022-09-30T02:02:03.453Z,94194.63
2022-09-30T02:04:38.158Z,94190.19
2022-09-30T02:07:10.544Z,94194.13
2022-09-30T02:09:42.519Z,94197.28
2022-09-30T02:12:16.541Z,94193.22
2022-09-30T02:14:48.681Z,94188.00
2022-09-30T02:17:21.888Z,94196.50
2022-09-30T02:19:56.084Z,94197.78
2022-09-30T02:22:30.681Z,94206.06
2022-09-30T02:25:05.072Z,94209.69
2022-09-30T02:27:42.644Z,94210.25
2022-09-30T02:30:13.745Z,94189.41
2022-09-30T02:32:46.645Z,94192.56
2022-09-30T02:35:23.728Z,94195.09
2022-09-30T02:37:57.232Z,94192.91
2022-09-30T02:40:30.501Z,94188.16
2022-09-30T02:42:58.753Z,94193.38
2022-09-30T02:45:27.805Z,94189.88
2022-09-30T02:48:12.729Z,94191.16
2022-09-30T02:50:49.104Z,94189.56
2022-09-30T02:53:26.408Z,94188.00
2022-09-30T02:56:24.540Z,94190.53
2022-09-30T02:58:53.956Z,94192.09
2022-09-30T03:01:21.943Z,94195.25
2022-09-30T03:03:52.765Z,94201.88
2022-09-30T03:06:22.525Z,94205.47
2022-09-30T03:08:52.265Z,94202.19
2022-09-30T03:11:23.301Z,94197.78
2022-09-30T03:14:15.618Z,94203.91
2022-09-30T03:17:12.233Z,94202.31
2022-09-30T03:19:55.518Z,94201.78
2022-09-30T03:22:45.247Z,94204.38
2022-09-30T03:25:24.145Z,94199.16
2022-09-30T03:28:06.254Z,94199.72
2022-09-30T03:30:38.217Z,94204.38
2022-09-30T03:33:11.556Z,94204.84
2022-09-30T03:35:49.014Z,94196.50
2022-09-30T03:38:28.485Z,94195.16
2022-09-30T03:41:05.035Z,94201.38
2022-09-30T03:43:35.933Z,94206.25
2022-09-30T03:46:11.582Z,94204.69
2022-09-30T03:48:41.518Z,94205.78
2022-09-30T03:51:10.859Z,94207.84
2022-09-30T03:53:42.162Z,94207.84
2022-09-30T03:56:10.102Z,94214.63
2022-09-30T03:58:42.223Z,94219.16
2022-09-30T04:01:19.241Z,94218.72
2022-09-30T04:03:47.841Z,94215.41
2022-09-30T04:06:16.510Z,94222.19
2022-09-30T04:08:45.891Z,94223.00
2022-09-30T04:11:13.937Z,94227.09
2022-09-30T04:13:41.874Z,94223.94
2022-09-30T04:16:10.678Z,94226.75
2022-09-30T04:18:40.152Z,94231.50
2022-09-30T04:21:09.213Z,94236.34
2022-09-30T04:23:37.553Z,94235.56
2022-09-30T04:26:07.694Z,94241.13
2022-09-30T04:28:35.968Z,94239.06
2022-09-30T04:31:05.278Z,94250.81
2022-09-30T04:33:33.953Z,94253.75
2022-09-30T04:36:02.435Z,94255.31
2022-09-30T04:38:31.172Z,94255.78
2022-09-30T04:40:59.130Z,94248.38
2022-09-30T04:43:28.771Z,94256.06
2022-09-30T04:45:58.120Z,94260.69
2022-09-30T04:48:28.017Z,94266.41
2022-09-30T04:50:55.993Z,94265.69
2022-09-30T04:53:23.912Z,94262.31
2022-09-30T04:55:51.850Z,94269.28
2022-09-30T04:58:19.836Z,94268.59
2022-09-30T05:00:49.225Z,94273.53
2022-09-30T05:03:17.257Z,94275.28
2022-09-30T05:05:45.988Z,94267.56
2022-09-30T05:08:13.920Z,94268.25
2022-09-30T05:10:42.369Z,94271.16
2022-09-30T05:13:10.458Z,94274.09
2022-09-30T05:15:38.463Z,94279.63
2022-09-30T05:18:07.929Z,94283.00
2022-09-30T05:20:35.859Z,94278.38
2022-09-30T05:23:03.927Z,94274.75
2022-09-30T05:25:31.899Z,94274.28
2022-09-30T05:27:59.895Z,94275.88
2022-09-30T05:30:27.860Z,94276.97
2022-09-30T05:32:55.781Z,94278.56
2022-09-30T05:35:25.155Z,94286.91
2022-09-30T05:37:53.077Z,94283.28
2022-09-30T05:40:21.061Z,94285.66
2022-09-30T05:42:49.028Z,94290.06
2022-09-30T05:45:17.637Z,94303.00
2022-09-30T05:47:51.785Z,94298.41
2022-09-30T05:50:20.659Z,94300.59
2022-09-30T05:52:50.226Z,94298.53
2022-09-30T05:55:19.020Z,94299.66
2022-09-30T05:57:50.024Z,94309.94
2022-09-30T06:00:18.491Z,94316.50
2022-09-30T06:02:46.507Z,94310.63
2022-09-30T06:05:14.662Z,94302.81
2022-09-30T06:07:42.641Z,94313.91
2022-09-30T06:10:12.957Z,94312.41
2022-09-30T06:12:40.925Z,94314.44
2022-09-30T06:15:10.447Z,94319.66
2022-09-30T06:17:38.437Z,94330.06
2022-09-30T06:20:06.952Z,94330.06
2022-09-30T06:22:37.031Z,94340.09
2022-09-30T06:25:06.939Z,94343.56
2022-09-30T06:27:37.250Z,94333.41
2022-09-30T06:30:06.005Z,94347.91
2022-09-30T06:32:34.234Z,94343.81
2022-09-30T06:35:03.962Z,94361.31
2022-09-30T06:37:31.907Z,94357.97
2022-09-30T06:39:59.833Z,94365.41
2022-09-30T06:42:27.743Z,94370.34
2022-09-30T06:44:57.279Z,94367.34
2022-09-30T06:47:26.146Z,94367.81
2022-09-30T06:49:58.820Z,94369.50
2022-09-30T06:52:27.429Z,94374.13
2022-09-30T06:54:56.825Z,94376.06
2022-09-30T06:57:27.741Z,94371.97
2022-09-30T06:59:57.196Z,94373.31
2022-09-30T07:02:25.274Z,94372.81
2022-09-30T07:04:53.326Z,94385.84
2022-09-30T07:07:22.349Z,94397.03
2022-09-30T07:09:50.386Z,94389.78
2022-09-30T07:12:18.491Z,94384.09
2022-09-30T07:14:46.911Z,94386.88
2022-09-30T07:17:16.270Z,94388.94
2022-09-30T07:19:44.182Z,94396.63
2022-09-30T07:22:34.357Z,94397.41
2022-09-30T07:25:04.897Z,94400.81
2022-09-30T07:27:34.363Z,94406.09
2022-09-30T07:30:14.182Z,94411.72
2022-09-30T07:32:46.008Z,94406.63
2022-09-30T07:35:13.905Z,94411.19
2022-09-30T07:37:41.824Z,94409.78
2022-09-30T07:40:10.713Z,94412.47
2022-09-30T07:42:41.679Z,94417.69
2022-09-30T07:45:10.999Z,94415.16
2022-09-30T07:47:38.907Z,94420.38
2022-09-30T07:50:10.830Z,94418.78
2022-09-30T07:52:39.081Z,94434.44
2022-09-30T07:55:08.180Z,94436.81
2022-09-30T07:57:36.156Z,94435.66
2022-09-30T08:00:29.826Z,94443.00
2022-09-30T08:02:53.136Z,94447.25
2022-09-30T08:05:22.499Z,94454.06
2022-09-30T08:07:50.395Z,94453.50
2022-09-30T08:12:54.466Z,94465.28
2022-09-30T08:15:25.825Z,94459.28
2022-09-30T08:17:53.752Z,94472.00
2022-09-30T08:20:23.046Z,94467.34
2022-09-30T08:22:53.765Z,94468.63
2022-09-30T08:25:22.352Z,94469.72
2022-09-30T08:27:50.409Z,94476.50
2022-09-30T08:30:18.594Z,94478.09
2022-09-30T08:32:46.609Z,94477.78
2022-09-30T08:35:14.553Z,94485.69
2022-09-30T08:37:43.883Z,94486.81
2022-09-30T08:40:21.008Z,94486.81
2022-09-30T08:43:05.133Z,94495.25
2022-09-30T08:45:42.269Z,94504.84
2022-09-30T08:48:24.979Z,94503.63
2022-09-30T08:51:02.409Z,94506.88
2022-09-30T08:53:35.518Z,94514.06
2022-09-30T08:56:05.424Z,94518.56
2022-09-30T08:58:37.826Z,94514.56
2022-09-30T09:01:16.348Z,94514.16
2022-09-30T09:03:45.339Z,94525.38
2022-09-30T09:06:25.266Z,94530.78
2022-09-30T09:09:21.827Z,94536.13
2022-09-30T09:12:03.281Z,94535.66
2022-09-30T09:14:43.477Z,94541.91
2022-09-30T09:17:23.924Z,94541.44
2022-09-30T09:20:00.044Z,94545.47
2022-09-30T09:22:28.935Z,94542.47
2022-09-30T09:25:01.043Z,94550.22
2022-09-30T09:27:44.346Z,94546.59
2022-09-30T09:30:14.880Z,94544.69
2022-09-30T09:32:43.518Z,94542.53
2022-09-30T09:35:16.461Z,94543.72
2022-09-30T09:38:13.542Z,94546.69
2022-09-30T09:40:57.373Z,94552.38
2022-09-30T09:43:34.924Z,94548.78
2022-09-30T09:46:13.650Z,94560.44
2022-09-30T09:48:41.621Z,94563.59
2022-09-30T09:51:20.292Z,94565.47
2022-09-30T09:53:53.485Z,94565.81
2022-09-30T09:56:28.396Z,94571.03
2022-09-30T09:59:13.213Z,94569.84
2022-09-30T10:01:43.496Z,94568.81
2022-09-30T10:04:16.229Z,94563.66
2022-09-30T10:06:47.407Z,94575.94
2022-09-30T10:09:31.054Z,94570.91
2022-09-30T10:12:35.584Z,94575.03
2022-09-30T10:15:14.975Z,94577.69
2022-09-30T10:17:43.283Z,94572.47
2022-09-30T10:20:24.035Z,94584.31
2022-09-30T10:22:51.998Z,94573.97
2022-09-30T10:25:25.033Z,94584.56
2022-09-30T10:27:59.070Z,94579.09
2022-09-30T10:30:47.280Z,94583.56
2022-09-30T10:33:23.165Z,94581.34
2022-09-30T10:36:11.006Z,94590.38
2022-09-30T10:38:48.843Z,94583.72
2022-09-30T10:41:23.643Z,94590.78
2022-09-30T10:43:54.352Z,94580.53
2022-09-30T10:46:30.661Z,94590.13
2022-09-30T10:49:00.475Z,94593.97
2022-09-30T10:51:36.214Z,94595.28
2022-09-30T10:54:05.291Z,94591.69
2022-09-30T10:56:39.326Z,94598.84
2022-09-30T10:59:16.719Z,94595.75
2022-09-30T11:01:53.706Z,94593.91
2022-09-30T11:04:30.217Z,94599.22
2022-09-30T11:07:06.196Z,94599.34
2022-09-30T11:09:39.244Z,94599.63
2022-09-30T11:12:16.109Z,94592.56
2022-09-30T11:14:52.725Z,94594.78
2022-09-30T11:17:32.415Z,94604.53
2022-09-30T11:20:09.271Z,94608.00
2022-09-30T11:22:44.999Z,94600.63
2022-09-30T11:25:16.313Z,94607.41
2022-09-30T11:27:54.631Z,94604.53
2022-09-30T11:30:27.535Z,94608.50
2022-09-30T11:33:13.984Z,94617.38
2022-09-30T11:35:53.278Z,94615.31
2022-09-30T11:38:41.584Z,94615.81
2022-09-30T11:41:15.917Z,94613.16
2022-09-30T11:43:55.309Z,94619.56
2022-09-30T11:46:51.748Z,94628.75
2022-09-30T11:49:38.531Z,94621.94
2022-09-30T11:52:17.732Z,94622.56
2022-09-30T11:55:06.462Z,94617.38
2022-09-30T11:57:40.551Z,94620.66
2022-09-30T12:00:15.872Z,94616.53
2022-09-30T12:02:47.960Z,94614.44
2022-09-30T12:05:20.722Z,94620.75
2022-09-30T12:07:53.539Z,94613.94
2022-09-30T12:10:27.956Z,94619.78
2022-09-30T12:13:01.202Z,94614.03
2022-09-30T12:15:30.956Z,94618.81
2022-09-30T12:18:03.695Z,94620.50
2022-09-30T12:20:37.246Z,94620.25
2022-09-30T12:23:15.476Z,94624.25
2022-09-30T12:25:47.479Z,94628.00
2022-09-30T12:28:47.480Z,94627.06
2022-09-30T12:31:33.745Z,94629.16
2022-09-30T12:34:16.753Z,94628.09
2022-09-30T12:37:13.363Z,94622.72
2022-09-30T12:40:04.298Z,94617.91
2022-09-30T12:43:07.392Z,94611.06
2022-09-30T12:45:57.344Z,94611.03
2022-09-30T12:48:29.604Z,94612.06
2022-09-30T12:50:58.894Z,94603.09
2022-09-30T12:53:31.984Z,94601.00
2022-09-30T12:56:05.349Z,94601.00
2022-09-30T12:58:37.219Z,94606.84
2022-09-30T13:01:13.231Z,94606.84
2022-09-30T13:03:51.879Z,94607.38
2022-09-30T13:06:21.985Z,94612.09
2022-09-30T13:09:18.872Z,94614.72
2022-09-30T13:11:48.249Z,94618.16
2022-09-30T13:14:26.421Z,94614.31
2022-09-30T13:17:04.299Z,94609.09
2022-09-30T13:19:36.434Z,94618.00
2022-09-30T13:22:51.826Z,94611.69
2022-09-30T13:25:21.880Z,94609.34
2022-09-30T13:27:53.529Z,94608.59
2022-09-30T13:30:40.859Z,94616.00
2022-09-30T13:33:32.518Z,94616.53
2022-09-30T13:36:11.066Z,94621.75
2022-09-30T13:38:41.476Z,94627.78
2022-09-30T13:41:18.858Z,94636.38
2022-09-30T13:43:53.161Z,94633.19
2022-09-30T13:46:29.946Z,94640.72
2022-09-30T13:49:03.316Z,94644.91
2022-09-30T13:51:34.025Z,94650.66
2022-09-30T13:54:08.910Z,94644.34
2022-09-30T13:56:41.215Z,94646.69
2022-09-30T13:59:41.672Z,94653.50
2022-09-30T14:02:38.563Z,94656.69
2022-09-30T14:05:29.121Z,94657.91
2022-09-30T14:08:13.983Z,94660.63
2022-09-30T14:10:57.139Z,94668.53
2022-09-30T14:13:42.431Z,94672.94
2022-09-30T14:16:41.995Z,94670.97
2022-09-30T14:19:28.501Z,94671.91
2022-09-30T14:21:59.824Z,94675.81
2022-09-30T14:24:35.206Z,94684.44
2022-09-30T14:27:27.863Z,94685.34
2022-09-30T14:30:07.386Z,94680.09
2022-09-30T14:32:42.296Z,94688.72
2022-09-30T14:35:15.570Z,94684.72
2022-09-30T14:37:46.916Z,94691.09
2022-09-30T14:40:19.330Z,94691.88
2022-09-30T14:42:48.620Z,94697.84
2022-09-30T14:45:22.274Z,94697.78
2022-09-30T14:47:53.537Z,94687.28
2022-09-30T14:50:26.173Z,94690.41
2022-09-30T14:52:57.099Z,94693.97
2022-09-30T14:55:29.010Z,94690.06
2022-09-30T14:58:18.267Z,94696.88
2022-09-30T15:00:51.641Z,94696.59
2022-09-30T15:03:19.824Z,94702.47
2022-09-30T15:05:47.852Z,94703.53
2022-09-30T15:08:19.998Z,94703.03
2022-09-30T15:10:49.573Z,94701.22
2022-09-30T15:13:19.626Z,94705.13
2022-09-30T15:15:49.197Z,94698.88
2022-09-30T15:18:31.278Z,94708.88
2022-09-30T15:21:08.688Z,94714.13
2022-09-30T15:23:39.926Z,94710.94
2022-09-30T15:26:09.188Z,94708.88
2022-09-30T15:28:37.856Z,94706.81
2022-09-30T15:31:09.192Z,94721.75
2022-09-30T15:33:37.263Z,94714.13
2022-09-30T15:36:08.186Z,94725.41
2022-09-30T15:38:38.715Z,94715.72
2022-09-30T15:41:09.570Z,94729.34
2022-09-30T15:43:41.138Z,94729.91
2022-09-30T15:46:27.104Z,94732.53
2022-09-30T15:48:57.383Z,94739.84
2022-09-30T15:51:29.155Z,94749.72
2022-09-30T15:54:00.484Z,94751.00
2022-09-30T15:56:35.381Z,94736.06
2022-09-30T15:59:06.385Z,94744.53
2022-09-30T16:01:38.013Z,94750.88
2022-09-30T16:04:11.019Z,94751.38
2022-09-30T16:06:46.371Z,94747.97
2022-09-30T16:09:25.475Z,94750.63
2022-09-30T16:12:05.479Z,94758.22
2022-09-30T16:14:37.388Z,94766.63
2022-09-30T16:17:08.010Z,94766.63
2022-09-30T16:19:36.101Z,94762.19
2022-09-30T16:22:04.063Z,94776.34
2022-09-30T16:24:45.825Z,94772.38
2022-09-30T16:27:31.637Z,94778.72
2022-09-30T16:30:01.025Z,94767.13
2022-09-30T16:32:33.259Z,94771.28
2022-09-30T16:35:01.460Z,94774.97
2022-09-30T16:37:29.443Z,94781.78
2022-09-30T16:40:02.969Z,94788.84
2022-09-30T16:42:33.019Z,94796.41
2022-09-30T16:45:01.904Z,94794.28
2022-09-30T16:47:31.280Z,94795.81
2022-09-30T16:49:59.364Z,94795.22
2022-09-30T16:52:27.354Z,94802.03
2022-09-30T16:54:55.369Z,94804.09
2022-09-30T16:57:23.328Z,94801.88
2022-09-30T16:59:51.525Z,94798.13
2022-09-30T17:02:20.239Z,94801.16
2022-09-30T17:04:49.638Z,94798.59
2022-09-30T17:07:17.672Z,94809.63
2022-09-30T17:09:45.769Z,94804.94
2022-09-30T17:12:14.451Z,94806.50
2022-09-30T17:14:43.941Z,94819.56
2022-09-30T17:17:14.082Z,94815.66
2022-09-30T17:19:42.459Z,94820.72
2022-09-30T17:22:11.876Z,94825.50
2022-09-30T17:24:39.823Z,94827.09
2022-09-30T17:27:07.884Z,94836.78
2022-09-30T17:29:41.930Z,94838.03
2022-09-30T17:32:10.343Z,94836.38
2022-09-30T17:34:38.302Z,94841.38
2022-09-30T17:39:40.717Z,94842.97
2022-09-30T17:42:30.210Z,94844.56
2022-09-30T17:44:58.564Z,94859.81
2022-09-30T17:47:26.838Z,94864.56
2022-09-30T17:49:55.157Z,94866.16
2022-09-30T17:52:23.823Z,94866.63
2022-09-30T17:54:53.243Z,94873.44
2022-09-30T17:57:21.908Z,94877.66
2022-09-30T17:59:50.827Z,94887.81
2022-09-30T18:02:20.105Z,94894.22
2022-09-30T18:04:48.080Z,94900.00
2022-09-30T18:07:16.032Z,94902.63
2022-09-30T18:09:43.957Z,94916.25
2022-09-30T18:12:13.334Z,94916.75
2022-09-30T18:14:41.258Z,94928.25
2022-09-30T18:17:09.203Z,94924.84
2022-09-30T18:19:37.094Z,94930.84
2022-09-30T18:22:05.100Z,94938.16
2022-09-30T18:24:50.608Z,94951.00
2022-09-30T18:27:22.056Z,94955.94
2022-09-30T18:29:50.342Z,94961.16
2022-09-30T18:32:18.555Z,94959.03
2022-09-30T18:34:46.643Z,94972.59
2022-09-30T18:37:14.573Z,94966.78
2022-09-30T18:39:42.636Z,94985.59
2022-09-30T18:42:10.623Z,94977.16
2022-09-30T18:44:40.136Z,94984.56
2022-09-30T18:47:08.130Z,94986.03
2022-09-30T18:49:36.054Z,94987.06
2022-09-30T18:52:04.641Z,94988.09
2022-09-30T18:54:33.750Z,94986.34
2022-09-30T18:57:01.765Z,94979.78
2022-09-30T18:59:29.754Z,94988.66
2022-09-30T19:02:00.591Z,94982.94
2022-09-30T19:04:29.113Z,94980.44
2022-09-30T19:06:57.044Z,94982.69
2022-09-30T19:09:27.637Z,94985.06
2022-09-30T19:11:55.679Z,94975.31
2022-09-30T19:14:24.159Z,94978.47
2022-09-30T19:16:52.503Z,94977.44
2022-09-30T19:19:22.900Z,94989.41
2022-09-30T19:21:51.145Z,94984.75
2022-09-30T19:24:20.371Z,94985.66
2022-09-30T19:26:52.313Z,94987.06
2022-09-30T19:29:20.458Z,94982.31
2022-09-30T19:31:48.421Z,94981.19
2022-09-30T19:34:27.776Z,94980.28
2022-09-30T19:37:00.082Z,94988.22
2022-09-30T19:39:40.699Z,94997.91
2022-09-30T19:42:18.345Z,95002.78
2022-09-30T19:44:47.625Z,94998.81
2022-09-30T19:47:16.782Z,95007.34
2022-09-30T19:49:45.249Z,95007.34
2022-09-30T19:52:22.014Z,95005.09
2022-09-30T19:54:51.853Z,95011.56
2022-09-30T19:57:19.768Z,95010.69
2022-09-30T19:59:47.671Z,95007.38
2022-09-30T20:02:15.693Z,95009.88
2022-09-30T20:04:44.337Z,95010.34
2022-09-30T20:07:16.219Z,95002.41
2022-09-30T20:09:44.169Z,95008.53
2022-09-30T20:12:12.093Z,95021.03
2022-09-30T20:14:57.660Z,95019.88
2022-09-30T20:17:25.596Z,95022.41
2022-09-30T20:20:07.372Z,95029.22
2022-09-30T20:22:36.783Z,95042.16
2022-09-30T20:25:05.333Z,95042.16
2022-09-30T20:27:33.267Z,95044.19
2022-09-30T20:30:01.251Z,95044.63
2022-09-30T20:32:30.841Z,95042.47
2022-09-30T20:34:59.095Z,95043.50
2022-09-30T20:37:27.153Z,95053.47
2022-09-30T20:39:57.759Z,95052.16
2022-09-30T20:42:29.539Z,95072.25
2022-09-30T20:45:03.110Z,95065.22
2022-09-30T20:47:31.582Z,95066.91
2022-09-30T20:49:59.591Z,95078.03
2022-09-30T20:52:28.797Z,95072.72
2022-09-30T20:55:00.521Z,95077.16
2022-09-30T20:57:30.238Z,95086.34
2022-09-30T20:59:59.201Z,95087.81
2022-09-30T21:02:29.143Z,95107.25
2022-09-30T21:04:58.386Z,95096.69
2022-09-30T21:07:26.362Z,95101.56
2022-09-30T21:09:54.377Z,95101.91
2022-09-30T21:12:23.687Z,95099.06
2022-09-30T21:14:51.611Z,95099.28
2022-09-30T21:17:19.537Z,95105.00
2022-09-30T21:19:47.548Z,95103.63
2022-09-30T21:22:15.531Z,95110.22
2022-09-30T21:24:43.497Z,95112.47
2022-09-30T21:27:11.945Z,95122.34
2022-09-30T21:29:41.216Z,95120.31
2022-09-30T21:32:09.210Z,95112.69
2022-09-30T21:34:37.133Z,95117.94
2022-09-30T21:37:05.101Z,95115.09
2022-09-30T21:39:32.981Z,95124.75
2022-09-30T21:42:00.908Z,95131.22
2022-09-30T21:44:28.917Z,95129.63
2022-09-30T21:46:58.439Z,95145.31
2022-09-30T22:45:24.938Z,95161.94
2022-09-30T22:47:53.155Z,95169.03
2022-09-30T22:50:55.811Z,95164.06
